sensor_id;sensor_type;location;lat;lon;timestamp;temperature;humidity
16271;DHT22;8243;49.048;8.396;2022-08-03T00:01:23;19.60;46.70
16271;DHT22;8243;49.048;8.396;2022-08-03T00:03:48;19.60;46.70
16271;DHT22;8243;49.048;8.396;2022-08-03T00:06:14;19.70;46.20
16271;DHT22;8243;49.048;8.396;2022-08-03T00:08:39;19.70;46.90
16271;DHT22;8243;49.048;8.396;2022-08-03T00:11:05;19.60;46.70
16271;DHT22;8243;49.048;8.396;2022-08-03T00:13:32;19.70;47.10
16271;DHT22;8243;49.048;8.396;2022-08-03T00:15:57;19.70;47.20
16271;DHT22;8243;49.048;8.396;2022-08-03T00:18:23;19.70;47.40
16271;DHT22;8243;49.048;8.396;2022-08-03T00:20:49;19.70;47.30
16271;DHT22;8243;49.048;8.396;2022-08-03T00:23:14;19.70;47.40
16271;DHT22;8243;49.048;8.396;2022-08-03T00:25:40;19.70;47.60
16271;DHT22;8243;49.048;8.396;2022-08-03T00:28:06;19.70;47.50
16271;DHT22;8243;49.048;8.396;2022-08-03T00:30:32;19.70;47.30
16271;DHT22;8243;49.048;8.396;2022-08-03T00:32:58;19.70;47.30
16271;DHT22;8243;49.048;8.396;2022-08-03T00:35:24;19.60;47.70
16271;DHT22;8243;49.048;8.396;2022-08-03T00:37:50;19.50;48.00
16271;DHT22;8243;49.048;8.396;2022-08-03T00:40:16;19.40;48.80
16271;DHT22;8243;49.048;8.396;2022-08-03T00:42:57;19.30;49.30
16271;DHT22;8243;49.048;8.396;2022-08-03T00:45:28;19.30;49.90
16271;DHT22;8243;49.048;8.396;2022-08-03T00:47:54;19.20;50.70
16271;DHT22;8243;49.048;8.396;2022-08-03T00:50:22;19.10;51.70
16271;DHT22;8243;49.048;8.396;2022-08-03T00:52:48;19.10;52.10
16271;DHT22;8243;49.048;8.396;2022-08-03T00:55:14;19.00;53.00
16271;DHT22;8243;49.048;8.396;2022-08-03T00:57:41;19.00;53.70
16271;DHT22;8243;49.048;8.396;2022-08-03T01:00:09;18.90;54.10
16271;DHT22;8243;49.048;8.396;2022-08-03T01:02:36;18.90;54.40
16271;DHT22;8243;49.048;8.396;2022-08-03T01:05:02;18.80;55.00
16271;DHT22;8243;49.048;8.396;2022-08-03T01:10:22;18.70;56.20
16271;DHT22;8243;49.048;8.396;2022-08-03T01:15:52;18.60;58.10
16271;DHT22;8243;49.048;8.396;2022-08-03T01:18:35;18.60;58.60
16271;DHT22;8243;49.048;8.396;2022-08-03T01:21:07;18.60;58.60
16271;DHT22;8243;49.048;8.396;2022-08-03T01:26:26;18.60;59.00
16271;DHT22;8243;49.048;8.396;2022-08-03T01:29:08;18.50;59.80
16271;DHT22;8243;49.048;8.396;2022-08-03T01:31:57;18.60;59.50
16271;DHT22;8243;49.048;8.396;2022-08-03T01:34:30;18.60;59.80
16271;DHT22;8243;49.048;8.396;2022-08-03T01:36:58;18.50;60.00
16271;DHT22;8243;49.048;8.396;2022-08-03T01:39:25;18.60;60.00
16271;DHT22;8243;49.048;8.396;2022-08-03T01:41:57;18.60;59.90
16271;DHT22;8243;49.048;8.396;2022-08-03T01:44:29;18.50;59.90
16271;DHT22;8243;49.048;8.396;2022-08-03T01:47:00;18.50;60.40
16271;DHT22;8243;49.048;8.396;2022-08-03T01:49:28;18.40;61.00
16271;DHT22;8243;49.048;8.396;2022-08-03T01:51:55;18.30;62.20
16271;DHT22;8243;49.048;8.396;2022-08-03T01:54:23;18.30;62.70
16271;DHT22;8243;49.048;8.396;2022-08-03T01:56:50;18.30;62.80
16271;DHT22;8243;49.048;8.396;2022-08-03T01:59:18;18.40;62.70
16271;DHT22;8243;49.048;8.396;2022-08-03T02:01:45;18.40;62.50
16271;DHT22;8243;49.048;8.396;2022-08-03T02:04:13;18.30;63.10
16271;DHT22;8243;49.048;8.396;2022-08-03T02:06:39;18.10;64.30
16271;DHT22;8243;49.048;8.396;2022-08-03T02:09:06;18.10;65.80
16271;DHT22;8243;49.048;8.396;2022-08-03T02:11:33;18.20;65.50
16271;DHT22;8243;49.048;8.396;2022-08-03T02:14:02;18.10;65.70
16271;DHT22;8243;49.048;8.396;2022-08-03T02:16:30;18.10;65.90
16271;DHT22;8243;49.048;8.396;2022-08-03T02:18:57;18.10;66.30
16271;DHT22;8243;49.048;8.396;2022-08-03T02:21:23;18.00;66.40
16271;DHT22;8243;49.048;8.396;2022-08-03T02:23:50;18.00;67.10
16271;DHT22;8243;49.048;8.396;2022-08-03T02:26:19;18.00;67.10
16271;DHT22;8243;49.048;8.396;2022-08-03T02:28:47;18.00;66.80
16271;DHT22;8243;49.048;8.396;2022-08-03T02:31:19;18.10;67.10
16271;DHT22;8243;49.048;8.396;2022-08-03T02:33:49;18.10;67.00
16271;DHT22;8243;49.048;8.396;2022-08-03T02:36:19;18.10;66.90
16271;DHT22;8243;49.048;8.396;2022-08-03T02:38:50;18.10;66.80
16271;DHT22;8243;49.048;8.396;2022-08-03T02:41:21;18.00;67.40
16271;DHT22;8243;49.048;8.396;2022-08-03T02:43:51;17.90;68.10
16271;DHT22;8243;49.048;8.396;2022-08-03T02:46:19;17.80;70.00
16271;DHT22;8243;49.048;8.396;2022-08-03T02:48:47;17.80;70.40
16271;DHT22;8243;49.048;8.396;2022-08-03T02:51:14;17.90;70.30
16271;DHT22;8243;49.048;8.396;2022-08-03T02:53:42;18.00;69.80
16271;DHT22;8243;49.048;8.396;2022-08-03T02:56:10;18.00;69.40
16271;DHT22;8243;49.048;8.396;2022-08-03T02:58:36;17.90;69.60
16271;DHT22;8243;49.048;8.396;2022-08-03T03:01:02;17.90;69.50
16271;DHT22;8243;49.048;8.396;2022-08-03T03:03:29;17.80;70.30
16271;DHT22;8243;49.048;8.396;2022-08-03T03:05:55;17.70;72.10
16271;DHT22;8243;49.048;8.396;2022-08-03T03:08:21;17.70;72.30
16271;DHT22;8243;49.048;8.396;2022-08-03T03:10:47;17.60;73.40
16271;DHT22;8243;49.048;8.396;2022-08-03T03:13:15;17.70;73.20
16271;DHT22;8243;49.048;8.396;2022-08-03T03:15:41;17.70;73.00
16271;DHT22;8243;49.048;8.396;2022-08-03T03:18:08;17.70;73.00
16271;DHT22;8243;49.048;8.396;2022-08-03T03:20:36;17.60;73.20
16271;DHT22;8243;49.048;8.396;2022-08-03T03:23:04;17.60;74.40
16271;DHT22;8243;49.048;8.396;2022-08-03T03:25:31;17.50;74.60
16271;DHT22;8243;49.048;8.396;2022-08-03T03:27:58;17.50;74.60
16271;DHT22;8243;49.048;8.396;2022-08-03T03:30:24;17.50;76.30
16271;DHT22;8243;49.048;8.396;2022-08-03T03:32:50;17.50;76.50
16271;DHT22;8243;49.048;8.396;2022-08-03T03:35:16;17.60;76.40
16271;DHT22;8243;49.048;8.396;2022-08-03T03:37:41;17.60;76.70
16271;DHT22;8243;49.048;8.396;2022-08-03T03:40:08;17.60;76.30
16271;DHT22;8243;49.048;8.396;2022-08-03T03:42:34;17.70;76.40
16271;DHT22;8243;49.048;8.396;2022-08-03T03:45:03;17.70;76.10
16271;DHT22;8243;49.048;8.396;2022-08-03T03:47:30;17.80;76.20
16271;DHT22;8243;49.048;8.396;2022-08-03T03:49:56;17.80;76.10
16271;DHT22;8243;49.048;8.396;2022-08-03T03:52:22;17.80;75.50
16271;DHT22;8243;49.048;8.396;2022-08-03T03:54:48;17.90;75.10
16271;DHT22;8243;49.048;8.396;2022-08-03T03:57:13;17.90;74.70
16271;DHT22;8243;49.048;8.396;2022-08-03T03:59:40;17.90;75.00
16271;DHT22;8243;49.048;8.396;2022-08-03T04:02:07;17.90;75.00
16271;DHT22;8243;49.048;8.396;2022-08-03T04:04:34;17.90;75.00
16271;DHT22;8243;49.048;8.396;2022-08-03T04:07:19;17.90;75.00
16271;DHT22;8243;49.048;8.396;2022-08-03T04:10:11;18.00;75.00
16271;DHT22;8243;49.048;8.396;2022-08-03T04:12:58;17.90;75.00
16271;DHT22;8243;49.048;8.396;2022-08-03T04:15:24;17.90;75.00
16271;DHT22;8243;49.048;8.396;2022-08-03T04:17:52;17.90;75.00
16271;DHT22;8243;49.048;8.396;2022-08-03T04:20:20;17.90;75.00
16271;DHT22;8243;49.048;8.396;2022-08-03T04:22:48;17.90;75.30
16271;DHT22;8243;49.048;8.396;2022-08-03T04:25:17;17.90;75.70
16271;DHT22;8243;49.048;8.396;2022-08-03T04:27:45;18.00;75.40
16271;DHT22;8243;49.048;8.396;2022-08-03T04:30:12;18.00;75.50
16271;DHT22;8243;49.048;8.396;2022-08-03T04:32:39;18.10;74.70
16271;DHT22;8243;49.048;8.396;2022-08-03T04:35:07;18.30;74.20
16271;DHT22;8243;49.048;8.396;2022-08-03T04:37:42;19.00;67.90
16271;DHT22;8243;49.048;8.396;2022-08-03T04:40:13;19.80;60.10
16271;DHT22;8243;49.048;8.396;2022-08-03T04:42:39;20.40;53.40
16271;DHT22;8243;49.048;8.396;2022-08-03T04:45:07;21.10;48.80
16271;DHT22;8243;49.048;8.396;2022-08-03T04:47:37;21.80;44.60
16271;DHT22;8243;49.048;8.396;2022-08-03T04:50:04;22.30;39.10
16271;DHT22;8243;49.048;8.396;2022-08-03T04:52:31;22.80;36.20
16271;DHT22;8243;49.048;8.396;2022-08-03T04:54:57;23.30;33.10
16271;DHT22;8243;49.048;8.396;2022-08-03T04:57:23;23.90;29.40
16271;DHT22;8243;49.048;8.396;2022-08-03T04:59:49;24.10;27.80
16271;DHT22;8243;49.048;8.396;2022-08-03T05:02:18;24.50;26.10
16271;DHT22;8243;49.048;8.396;2022-08-03T05:04:44;24.60;24.90
16271;DHT22;8243;49.048;8.396;2022-08-03T05:07:11;24.70;24.20
16271;DHT22;8243;49.048;8.396;2022-08-03T05:09:37;24.30;24.10
16271;DHT22;8243;49.048;8.396;2022-08-03T05:12:03;24.40;24.40
16271;DHT22;8243;49.048;8.396;2022-08-03T05:14:29;24.70;22.60
16271;DHT22;8243;49.048;8.396;2022-08-03T05:16:55;25.30;21.00
16271;DHT22;8243;49.048;8.396;2022-08-03T05:19:21;25.70;20.00
16271;DHT22;8243;49.048;8.396;2022-08-03T05:21:46;25.70;19.50
16271;DHT22;8243;49.048;8.396;2022-08-03T05:24:12;26.00;18.10
16271;DHT22;8243;49.048;8.396;2022-08-03T05:26:37;26.00;18.50
16271;DHT22;8243;49.048;8.396;2022-08-03T05:29:03;26.00;18.20
16271;DHT22;8243;49.048;8.396;2022-08-03T05:31:29;25.70;18.50
16271;DHT22;8243;49.048;8.396;2022-08-03T05:33:55;25.50;18.90
16271;DHT22;8243;49.048;8.396;2022-08-03T05:36:21;25.80;18.60
16271;DHT22;8243;49.048;8.396;2022-08-03T05:38:47;25.80;18.50
16271;DHT22;8243;49.048;8.396;2022-08-03T05:41:12;26.20;17.70
16271;DHT22;8243;49.048;8.396;2022-08-03T05:43:38;26.40;17.40
16271;DHT22;8243;49.048;8.396;2022-08-03T05:46:03;26.70;16.70
16271;DHT22;8243;49.048;8.396;2022-08-03T05:48:29;26.80;16.50
16271;DHT22;8243;49.048;8.396;2022-08-03T05:50:55;27.20;15.40
16271;DHT22;8243;49.048;8.396;2022-08-03T05:53:20;27.60;15.30
16271;DHT22;8243;49.048;8.396;2022-08-03T05:55:48;27.50;15.10
16271;DHT22;8243;49.048;8.396;2022-08-03T05:58:14;28.10;14.30
16271;DHT22;8243;49.048;8.396;2022-08-03T06:00:40;28.20;13.50
16271;DHT22;8243;49.048;8.396;2022-08-03T06:03:05;28.30;13.70
16271;DHT22;8243;49.048;8.396;2022-08-03T06:05:31;28.00;13.20
16271;DHT22;8243;49.048;8.396;2022-08-03T06:08:01;28.20;13.50
16271;DHT22;8243;49.048;8.396;2022-08-03T06:10:26;28.50;12.50
16271;DHT22;8243;49.048;8.396;2022-08-03T06:12:52;28.40;12.20
16271;DHT22;8243;49.048;8.396;2022-08-03T06:15:18;28.50;12.60
16271;DHT22;8243;49.048;8.396;2022-08-03T06:17:47;28.10;12.40
16271;DHT22;8243;49.048;8.396;2022-08-03T06:20:18;28.00;12.70
16271;DHT22;8243;49.048;8.396;2022-08-03T06:22:45;27.80;12.60
16271;DHT22;8243;49.048;8.396;2022-08-03T06:25:11;27.70;12.80
16271;DHT22;8243;49.048;8.396;2022-08-03T06:27:36;27.90;12.50
16271;DHT22;8243;49.048;8.396;2022-08-03T06:30:05;27.90;12.60
16271;DHT22;8243;49.048;8.396;2022-08-03T06:32:32;28.30;12.60
16271;DHT22;8243;49.048;8.396;2022-08-03T06:34:58;28.60;11.50
16271;DHT22;8243;49.048;8.396;2022-08-03T06:37:24;29.00;11.00
16271;DHT22;8243;49.048;8.396;2022-08-03T06:39:51;29.40;9.40
16271;DHT22;8243;49.048;8.396;2022-08-03T06:42:17;29.70;9.30
16271;DHT22;8243;49.048;8.396;2022-08-03T06:44:43;29.90;8.90
16271;DHT22;8243;49.048;8.396;2022-08-03T06:47:08;30.30;8.40
16271;DHT22;8243;49.048;8.396;2022-08-03T06:49:34;30.30;8.30
16271;DHT22;8243;49.048;8.396;2022-08-03T06:51:59;30.90;7.30
16271;DHT22;8243;49.048;8.396;2022-08-03T06:54:25;31.70;6.20
16271;DHT22;8243;49.048;8.396;2022-08-03T06:56:50;31.80;5.90
16271;DHT22;8243;49.048;8.396;2022-08-03T06:59:16;31.60;6.50
16271;DHT22;8243;49.048;8.396;2022-08-03T07:01:41;32.00;6.00
16271;DHT22;8243;49.048;8.396;2022-08-03T07:04:07;32.30;5.00
16271;DHT22;8243;49.048;8.396;2022-08-03T07:06:32;32.10;5.80
16271;DHT22;8243;49.048;8.396;2022-08-03T07:08:58;32.20;4.90
16271;DHT22;8243;49.048;8.396;2022-08-03T07:11:24;32.60;4.50
16271;DHT22;8243;49.048;8.396;2022-08-03T07:13:50;32.90;4.50
16271;DHT22;8243;49.048;8.396;2022-08-03T07:16:16;32.30;4.30
16271;DHT22;8243;49.048;8.396;2022-08-03T07:18:42;32.30;4.60
16271;DHT22;8243;49.048;8.396;2022-08-03T07:21:07;32.80;4.00
16271;DHT22;8243;49.048;8.396;2022-08-03T07:23:35;33.20;3.30
16271;DHT22;8243;49.048;8.396;2022-08-03T07:26:00;33.00;3.50
16271;DHT22;8243;49.048;8.396;2022-08-03T07:28:26;33.70;3.10
16271;DHT22;8243;49.048;8.396;2022-08-03T07:30:52;34.10;1.80
16271;DHT22;8243;49.048;8.396;2022-08-03T07:33:17;34.60;1.20
16271;DHT22;8243;49.048;8.396;2022-08-03T07:35:43;35.30;1.00
16271;DHT22;8243;49.048;8.396;2022-08-03T07:38:09;35.40;1.00
16271;DHT22;8243;49.048;8.396;2022-08-03T07:40:34;35.70;1.00
16271;DHT22;8243;49.048;8.396;2022-08-03T07:43:00;35.80;1.00
16271;DHT22;8243;49.048;8.396;2022-08-03T07:45:28;36.20;1.00
16271;DHT22;8243;49.048;8.396;2022-08-03T07:47:54;35.50;1.00
16271;DHT22;8243;49.048;8.396;2022-08-03T07:50:20;35.70;1.00
16271;DHT22;8243;49.048;8.396;2022-08-03T07:52:46;35.90;1.00
16271;DHT22;8243;49.048;8.396;2022-08-03T07:55:17;35.30;1.00
16271;DHT22;8243;49.048;8.396;2022-08-03T07:57:43;35.90;1.00
16271;DHT22;8243;49.048;8.396;2022-08-03T08:00:17;36.50;1.00
16271;DHT22;8243;49.048;8.396;2022-08-03T08:02:43;36.50;1.00
16271;DHT22;8243;49.048;8.396;2022-08-03T08:05:10;35.50;1.00
16271;DHT22;8243;49.048;8.396;2022-08-03T08:07:37;35.10;1.00
16271;DHT22;8243;49.048;8.396;2022-08-03T08:10:05;35.40;1.00
16271;DHT22;8243;49.048;8.396;2022-08-03T08:12:31;35.50;1.00
16271;DHT22;8243;49.048;8.396;2022-08-03T08:14:56;35.20;1.00
16271;DHT22;8243;49.048;8.396;2022-08-03T08:17:22;35.40;1.00
16271;DHT22;8243;49.048;8.396;2022-08-03T08:19:47;35.80;1.00
16271;DHT22;8243;49.048;8.396;2022-08-03T08:22:13;34.50;1.00
16271;DHT22;8243;49.048;8.396;2022-08-03T08:24:38;34.20;1.00
16271;DHT22;8243;49.048;8.396;2022-08-03T08:27:04;34.60;1.00
16271;DHT22;8243;49.048;8.396;2022-08-03T08:29:30;34.00;1.00
16271;DHT22;8243;49.048;8.396;2022-08-03T08:31:55;34.10;1.20
16271;DHT22;8243;49.048;8.396;2022-08-03T08:34:21;34.70;1.00
16271;DHT22;8243;49.048;8.396;2022-08-03T08:36:46;35.00;1.00
16271;DHT22;8243;49.048;8.396;2022-08-03T08:39:12;35.30;1.00
16271;DHT22;8243;49.048;8.396;2022-08-03T08:41:37;35.00;1.00
16271;DHT22;8243;49.048;8.396;2022-08-03T08:44:03;35.90;1.00
16271;DHT22;8243;49.048;8.396;2022-08-03T08:46:32;36.50;1.00
16271;DHT22;8243;49.048;8.396;2022-08-03T08:48:59;36.40;1.00
16271;DHT22;8243;49.048;8.396;2022-08-03T08:51:30;37.40;1.00
16271;DHT22;8243;49.048;8.396;2022-08-03T08:53:58;37.90;1.00
16271;DHT22;8243;49.048;8.396;2022-08-03T08:56:26;38.30;1.00
16271;DHT22;8243;49.048;8.396;2022-08-03T08:58:55;38.00;1.00
16271;DHT22;8243;49.048;8.396;2022-08-03T09:01:22;38.10;1.00
16271;DHT22;8243;49.048;8.396;2022-08-03T09:03:48;37.90;1.00
16271;DHT22;8243;49.048;8.396;2022-08-03T09:06:13;38.20;1.00
16271;DHT22;8243;49.048;8.396;2022-08-03T09:08:39;38.30;1.00
16271;DHT22;8243;49.048;8.396;2022-08-03T09:11:05;38.00;1.00
16271;DHT22;8243;49.048;8.396;2022-08-03T09:13:32;38.10;1.00
16271;DHT22;8243;49.048;8.396;2022-08-03T09:16:30;38.40;1.00
16271;DHT22;8243;49.048;8.396;2022-08-03T09:19:12;38.30;1.00
16271;DHT22;8243;49.048;8.396;2022-08-03T09:21:39;38.40;1.00
16271;DHT22;8243;49.048;8.396;2022-08-03T09:24:05;38.20;1.00
16271;DHT22;8243;49.048;8.396;2022-08-03T09:26:33;38.50;1.00
16271;DHT22;8243;49.048;8.396;2022-08-03T09:29:04;38.10;1.00
16271;DHT22;8243;49.048;8.396;2022-08-03T09:31:38;37.80;1.00
16271;DHT22;8243;49.048;8.396;2022-08-03T09:34:06;38.30;1.00
16271;DHT22;8243;49.048;8.396;2022-08-03T09:36:44;38.30;1.00
16271;DHT22;8243;49.048;8.396;2022-08-03T09:39:12;38.30;1.00
16271;DHT22;8243;49.048;8.396;2022-08-03T09:41:40;38.40;1.00
16271;DHT22;8243;49.048;8.396;2022-08-03T09:44:06;39.10;1.00
16271;DHT22;8243;49.048;8.396;2022-08-03T09:46:44;38.60;1.00
16271;DHT22;8243;49.048;8.396;2022-08-03T09:49:11;38.60;1.00
16271;DHT22;8243;49.048;8.396;2022-08-03T09:51:38;38.60;1.00
16271;DHT22;8243;49.048;8.396;2022-08-03T09:54:04;38.50;1.00
16271;DHT22;8243;49.048;8.396;2022-08-03T09:56:41;38.60;1.00
16271;DHT22;8243;49.048;8.396;2022-08-03T09:59:07;39.00;1.00
16271;DHT22;8243;49.048;8.396;2022-08-03T10:01:34;39.00;1.00
16271;DHT22;8243;49.048;8.396;2022-08-03T10:04:00;38.80;1.00
16271;DHT22;8243;49.048;8.396;2022-08-03T10:06:25;38.30;1.00
16271;DHT22;8243;49.048;8.396;2022-08-03T10:09:11;38.00;1.00
16271;DHT22;8243;49.048;8.396;2022-08-03T10:11:38;37.90;1.00
16271;DHT22;8243;49.048;8.396;2022-08-03T10:14:05;38.00;1.00
16271;DHT22;8243;49.048;8.396;2022-08-03T10:16:36;38.20;1.00
16271;DHT22;8243;49.048;8.396;2022-08-03T10:19:07;37.50;1.00
16271;DHT22;8243;49.048;8.396;2022-08-03T10:21:36;37.60;1.00
16271;DHT22;8243;49.048;8.396;2022-08-03T10:24:04;38.00;1.00
16271;DHT22;8243;49.048;8.396;2022-08-03T10:26:32;37.20;1.00
16271;DHT22;8243;49.048;8.396;2022-08-03T10:28:59;37.00;1.00
16271;DHT22;8243;49.048;8.396;2022-08-03T10:31:33;37.40;1.00
16271;DHT22;8243;49.048;8.396;2022-08-03T10:34:01;37.70;1.00
16271;DHT22;8243;49.048;8.396;2022-08-03T10:36:30;37.70;1.00
16271;DHT22;8243;49.048;8.396;2022-08-03T10:38:58;37.30;1.00
16271;DHT22;8243;49.048;8.396;2022-08-03T10:41:29;37.40;1.00
16271;DHT22;8243;49.048;8.396;2022-08-03T10:44:02;37.50;1.00
16271;DHT22;8243;49.048;8.396;2022-08-03T10:46:28;37.80;1.00
16271;DHT22;8243;49.048;8.396;2022-08-03T10:48:54;37.70;1.00
16271;DHT22;8243;49.048;8.396;2022-08-03T10:51:21;37.60;1.00
16271;DHT22;8243;49.048;8.396;2022-08-03T10:53:47;37.70;1.00
16271;DHT22;8243;49.048;8.396;2022-08-03T10:59:21;36.90;1.00
16271;DHT22;8243;49.048;8.396;2022-08-03T11:01:57;35.90;1.00
16271;DHT22;8243;49.048;8.396;2022-08-03T11:04:23;35.50;1.00
16271;DHT22;8243;49.048;8.396;2022-08-03T11:09:41;35.60;1.70
16271;DHT22;8243;49.048;8.396;2022-08-03T11:12:21;35.70;1.50
16271;DHT22;8243;49.048;8.396;2022-08-03T11:14:48;35.90;1.00
16271;DHT22;8243;49.048;8.396;2022-08-03T11:17:14;35.70;1.00
16271;DHT22;8243;49.048;8.396;2022-08-03T11:19:45;35.10;1.70
16271;DHT22;8243;49.048;8.396;2022-08-03T11:22:11;35.30;1.70
16271;DHT22;8243;49.048;8.396;2022-08-03T11:43:06;35.30;1.00
16271;DHT22;8243;49.048;8.396;2022-08-03T11:45:33;34.80;1.90
16271;DHT22;8243;49.048;8.396;2022-08-03T11:48:09;34.70;2.20
16271;DHT22;8243;49.048;8.396;2022-08-03T11:50:36;35.20;2.40
16271;DHT22;8243;49.048;8.396;2022-08-03T11:53:02;35.60;1.40
16271;DHT22;8243;49.048;8.396;2022-08-03T11:55:30;35.50;1.00
16271;DHT22;8243;49.048;8.396;2022-08-03T11:57:58;34.90;1.10
16271;DHT22;8243;49.048;8.396;2022-08-03T12:00:29;34.70;1.60
16271;DHT22;8243;49.048;8.396;2022-08-03T12:02:57;34.80;1.80
16271;DHT22;8243;49.048;8.396;2022-08-03T12:05:56;34.90;1.90
16271;DHT22;8243;49.048;8.396;2022-08-03T12:10:54;35.70;1.10
16271;DHT22;8243;49.048;8.396;2022-08-03T12:13:20;36.00;1.10
16271;DHT22;8243;49.048;8.396;2022-08-03T12:15:51;35.90;1.00
16271;DHT22;8243;49.048;8.396;2022-08-03T12:18:18;35.60;1.00
16271;DHT22;8243;49.048;8.396;2022-08-03T12:20:46;35.50;1.00
16271;DHT22;8243;49.048;8.396;2022-08-03T12:23:12;35.40;1.00
16271;DHT22;8243;49.048;8.396;2022-08-03T12:25:40;35.10;1.00
16271;DHT22;8243;49.048;8.396;2022-08-03T12:28:17;35.20;1.00
16271;DHT22;8243;49.048;8.396;2022-08-03T12:30:45;35.00;1.40
16271;DHT22;8243;49.048;8.396;2022-08-03T12:33:21;35.20;1.60
16271;DHT22;8243;49.048;8.396;2022-08-03T12:35:49;35.50;1.00
16271;DHT22;8243;49.048;8.396;2022-08-03T12:38:20;35.30;1.40
16271;DHT22;8243;49.048;8.396;2022-08-03T12:41:07;35.70;1.00
16271;DHT22;8243;49.048;8.396;2022-08-03T12:43:36;34.90;1.40
16271;DHT22;8243;49.048;8.396;2022-08-03T12:46:10;34.80;1.20
16271;DHT22;8243;49.048;8.396;2022-08-03T12:48:53;34.80;1.60
16271;DHT22;8243;49.048;8.396;2022-08-03T12:51:25;34.50;2.10
16271;DHT22;8243;49.048;8.396;2022-08-03T12:53:55;34.50;1.50
16271;DHT22;8243;49.048;8.396;2022-08-03T12:56:22;34.70;1.70
16271;DHT22;8243;49.048;8.396;2022-08-03T12:58:48;34.60;2.00
16271;DHT22;8243;49.048;8.396;2022-08-03T13:01:15;34.50;1.90
16271;DHT22;8243;49.048;8.396;2022-08-03T13:03:42;34.50;2.20
16271;DHT22;8243;49.048;8.396;2022-08-03T13:06:16;34.80;1.80
16271;DHT22;8243;49.048;8.396;2022-08-03T13:08:42;34.50;2.10
16271;DHT22;8243;49.048;8.396;2022-08-03T13:11:19;34.50;1.80
16271;DHT22;8243;49.048;8.396;2022-08-03T13:13:45;34.40;1.90
16271;DHT22;8243;49.048;8.396;2022-08-03T13:16:10;34.40;2.10
16271;DHT22;8243;49.048;8.396;2022-08-03T13:18:36;34.60;1.90
16271;DHT22;8243;49.048;8.396;2022-08-03T13:21:01;34.90;1.60
16271;DHT22;8243;49.048;8.396;2022-08-03T13:23:27;35.50;1.00
16271;DHT22;8243;49.048;8.396;2022-08-03T13:25:52;35.20;1.10
16271;DHT22;8243;49.048;8.396;2022-08-03T13:28:18;34.90;1.30
16271;DHT22;8243;49.048;8.396;2022-08-03T13:30:44;34.80;1.60
16271;DHT22;8243;49.048;8.396;2022-08-03T13:33:09;35.10;1.20
16271;DHT22;8243;49.048;8.396;2022-08-03T13:35:35;35.50;1.10
16271;DHT22;8243;49.048;8.396;2022-08-03T13:38:00;35.50;1.00
16271;DHT22;8243;49.048;8.396;2022-08-03T13:40:26;35.50;1.00
16271;DHT22;8243;49.048;8.396;2022-08-03T13:42:55;35.90;1.00
16271;DHT22;8243;49.048;8.396;2022-08-03T13:45:20;36.10;1.00
16271;DHT22;8243;49.048;8.396;2022-08-03T13:47:46;36.40;1.00
16271;DHT22;8243;49.048;8.396;2022-08-03T13:50:12;36.60;1.00
16271;DHT22;8243;49.048;8.396;2022-08-03T13:52:38;36.70;1.00
16271;DHT22;8243;49.048;8.396;2022-08-03T13:55:05;36.80;1.00
16271;DHT22;8243;49.048;8.396;2022-08-03T13:57:31;36.90;1.00
16271;DHT22;8243;49.048;8.396;2022-08-03T13:59:57;36.70;1.00
16271;DHT22;8243;49.048;8.396;2022-08-03T14:02:23;36.70;1.00
16271;DHT22;8243;49.048;8.396;2022-08-03T14:04:49;36.60;1.00
16271;DHT22;8243;49.048;8.396;2022-08-03T14:07:15;36.80;1.00
16271;DHT22;8243;49.048;8.396;2022-08-03T14:09:40;37.00;1.00
16271;DHT22;8243;49.048;8.396;2022-08-03T14:12:06;36.80;1.00
16271;DHT22;8243;49.048;8.396;2022-08-03T14:14:32;36.30;1.00
16271;DHT22;8243;49.048;8.396;2022-08-03T14:16:57;36.10;1.00
16271;DHT22;8243;49.048;8.396;2022-08-03T14:19:23;35.90;1.00
16271;DHT22;8243;49.048;8.396;2022-08-03T14:21:48;36.30;1.00
16271;DHT22;8243;49.048;8.396;2022-08-03T14:24:14;36.50;1.00
16271;DHT22;8243;49.048;8.396;2022-08-03T14:26:40;36.60;1.00
16271;DHT22;8243;49.048;8.396;2022-08-03T14:29:05;36.70;1.00
16271;DHT22;8243;49.048;8.396;2022-08-03T14:31:31;36.60;1.00
16271;DHT22;8243;49.048;8.396;2022-08-03T14:33:57;36.60;1.00
16271;DHT22;8243;49.048;8.396;2022-08-03T14:36:22;36.80;1.00
16271;DHT22;8243;49.048;8.396;2022-08-03T14:38:49;36.80;1.00
16271;DHT22;8243;49.048;8.396;2022-08-03T14:41:15;36.70;1.00
16271;DHT22;8243;49.048;8.396;2022-08-03T14:43:40;36.80;1.00
16271;DHT22;8243;49.048;8.396;2022-08-03T14:46:06;36.80;1.00
16271;DHT22;8243;49.048;8.396;2022-08-03T14:48:31;36.80;1.00
16271;DHT22;8243;49.048;8.396;2022-08-03T14:50:57;36.60;1.00
16271;DHT22;8243;49.048;8.396;2022-08-03T14:53:23;36.60;1.00
16271;DHT22;8243;49.048;8.396;2022-08-03T14:55:49;36.60;1.00
16271;DHT22;8243;49.048;8.396;2022-08-03T14:58:21;36.60;1.00
16271;DHT22;8243;49.048;8.396;2022-08-03T15:00:48;36.60;1.00
16271;DHT22;8243;49.048;8.396;2022-08-03T15:03:15;36.60;1.00
16271;DHT22;8243;49.048;8.396;2022-08-03T15:05:40;36.60;1.00
16271;DHT22;8243;49.048;8.396;2022-08-03T15:08:06;36.80;1.00
16271;DHT22;8243;49.048;8.396;2022-08-03T15:10:31;36.90;1.00
16271;DHT22;8243;49.048;8.396;2022-08-03T15:12:57;36.90;1.00
16271;DHT22;8243;49.048;8.396;2022-08-03T15:15:23;37.00;1.00
16271;DHT22;8243;49.048;8.396;2022-08-03T15:17:48;36.90;1.00
16271;DHT22;8243;49.048;8.396;2022-08-03T15:20:14;36.90;1.00
16271;DHT22;8243;49.048;8.396;2022-08-03T15:22:39;36.70;1.00
16271;DHT22;8243;49.048;8.396;2022-08-03T15:25:06;36.40;1.00
16271;DHT22;8243;49.048;8.396;2022-08-03T15:27:32;36.00;1.00
16271;DHT22;8243;49.048;8.396;2022-08-03T15:29:57;36.20;1.00
16271;DHT22;8243;49.048;8.396;2022-08-03T15:32:23;36.30;1.00
16271;DHT22;8243;49.048;8.396;2022-08-03T15:34:48;36.00;1.00
16271;DHT22;8243;49.048;8.396;2022-08-03T15:37:15;36.20;1.00
16271;DHT22;8243;49.048;8.396;2022-08-03T15:39:40;36.30;1.00
16271;DHT22;8243;49.048;8.396;2022-08-03T15:42:06;36.40;1.00
16271;DHT22;8243;49.048;8.396;2022-08-03T15:44:32;36.40;1.00
16271;DHT22;8243;49.048;8.396;2022-08-03T15:46:57;36.30;1.00
16271;DHT22;8243;49.048;8.396;2022-08-03T15:49:23;36.30;1.00
16271;DHT22;8243;49.048;8.396;2022-08-03T15:51:48;36.10;1.00
16271;DHT22;8243;49.048;8.396;2022-08-03T15:54:14;35.80;1.00
16271;DHT22;8243;49.048;8.396;2022-08-03T15:56:39;35.60;1.00
16271;DHT22;8243;49.048;8.396;2022-08-03T15:59:09;35.70;1.00
16271;DHT22;8243;49.048;8.396;2022-08-03T16:01:35;35.80;1.00
16271;DHT22;8243;49.048;8.396;2022-08-03T16:04:01;35.50;1.00
16271;DHT22;8243;49.048;8.396;2022-08-03T16:06:26;35.50;1.00
16271;DHT22;8243;49.048;8.396;2022-08-03T16:08:52;35.50;1.00
16271;DHT22;8243;49.048;8.396;2022-08-03T16:11:17;35.60;1.00
16271;DHT22;8243;49.048;8.396;2022-08-03T16:13:43;35.30;1.00
16271;DHT22;8243;49.048;8.396;2022-08-03T16:16:08;34.80;1.00
16271;DHT22;8243;49.048;8.396;2022-08-03T16:18:35;34.90;1.00
16271;DHT22;8243;49.048;8.396;2022-08-03T16:21:01;35.10;1.00
16271;DHT22;8243;49.048;8.396;2022-08-03T16:23:27;35.30;1.00
16271;DHT22;8243;49.048;8.396;2022-08-03T16:25:53;35.10;1.00
16271;DHT22;8243;49.048;8.396;2022-08-03T16:28:18;35.00;1.00
16271;DHT22;8243;49.048;8.396;2022-08-03T16:30:45;35.10;1.00
16271;DHT22;8243;49.048;8.396;2022-08-03T16:33:12;35.20;1.00